Irish Sea, Ireland
Current Conditions -  °F | °C
As of 11:50 AM on Tuesday 21 Oct 2014 (Local Time) from EGOV Reporting Station
Scattered Clouds Scattered Clouds  
Wind Chill: 52°   Ceiling: Unl
Heat Index: 52°   Visibility: 6mi
Dew Point: 43°   Wind: 32mph
Humidity: 71%   Direction: 290°WNW
Pressure: 29.74"   Gusts: 47mph
Location:  53.5°N, 5.33°W
Report Text: EGOV 211050Z 29028G41KT 9999 SCT030 SCT045 11/06 Q1007 BLU NOSIG
Loading
Personal Weather Stations






























Interactive Weather Map
Tropical Storm Tracking
New forecast layout! Learn more

10-Day Weather Forecast

Advertisements
Track Severe Weather on mobile